sensor_id;sensor_type;location;lat;lon;timestamp;P1;durP1;ratioP1;P2;durP2;ratioP2
17631;SDS011;8934;51.194;17.150;2022-10-31T00:02:16;24.57;;;17.63;;
17631;SDS011;8934;51.194;17.150;2022-10-31T00:05:04;24.73;;;18.03;;
17631;SDS011;8934;51.194;17.150;2022-10-31T00:07:52;31.70;;;20.37;;
17631;SDS011;8934;51.194;17.150;2022-10-31T00:10:40;22.90;;;17.63;;
17631;SDS011;8934;51.194;17.150;2022-10-31T00:13:28;25.43;;;18.87;;
17631;SDS011;8934;51.194;17.150;2022-10-31T00:16:18;21.50;;;16.30;;
17631;SDS011;8934;51.194;17.150;2022-10-31T00:19:07;18.90;;;16.27;;
17631;SDS011;8934;51.194;17.150;2022-10-31T00:21:55;25.93;;;17.20;;
17631;SDS011;8934;51.194;17.150;2022-10-31T00:24:43;19.63;;;15.98;;
17631;SDS011;8934;51.194;17.150;2022-10-31T00:27:31;21.23;;;16.73;;
17631;SDS011;8934;51.194;17.150;2022-10-31T00:30:19;19.37;;;16.10;;
17631;SDS011;8934;51.194;17.150;2022-10-31T00:33:09;21.40;;;16.60;;
17631;SDS011;8934;51.194;17.150;2022-10-31T00:35:56;22.43;;;17.07;;
17631;SDS011;8934;51.194;17.150;2022-10-31T00:38:44;20.77;;;16.53;;
17631;SDS011;8934;51.194;17.150;2022-10-31T00:41:34;20.50;;;16.53;;
17631;SDS011;8934;51.194;17.150;2022-10-31T00:44:26;17.53;;;15.60;;
17631;SDS011;8934;51.194;17.150;2022-10-31T00:47:14;22.43;;;17.07;;
17631;SDS011;8934;51.194;17.150;2022-10-31T00:50:05;23.10;;;17.53;;
17631;SDS011;8934;51.194;17.150;2022-10-31T07:03:07;22.83;;;18.53;;
17631;SDS011;8934;51.194;17.150;2022-10-31T07:05:59;22.27;;;18.70;;
17631;SDS011;8934;51.194;17.150;2022-10-31T07:20:01;26.10;;;21.45;;
17631;SDS011;8934;51.194;17.150;2022-10-31T07:22:51;28.20;;;23.70;;
17631;SDS011;8934;51.194;17.150;2022-10-31T07:25:39;29.20;;;24.85;;
17631;SDS011;8934;51.194;17.150;2022-10-31T07:28:39;33.43;;;27.30;;
17631;SDS011;8934;51.194;17.150;2022-10-31T07:31:28;35.03;;;28.60;;
17631;SDS011;8934;51.194;17.150;2022-10-31T07:34:21;32.90;;;26.90;;
17631;SDS011;8934;51.194;17.150;2022-10-31T07:37:27;35.00;;;27.85;;
17631;SDS011;8934;51.194;17.150;2022-10-31T07:40:19;29.35;;;25.30;;
17631;SDS011;8934;51.194;17.150;2022-10-31T07:43:07;35.28;;;27.67;;
17631;SDS011;8934;51.194;17.150;2022-10-31T07:46:18;36.55;;;29.63;;
17631;SDS011;8934;51.194;17.150;2022-10-31T07:49:24;37.60;;;29.58;;
17631;SDS011;8934;51.194;17.150;2022-10-31T07:52:18;31.35;;;27.88;;
17631;SDS011;8934;51.194;17.150;2022-10-31T07:55:42;31.60;;;26.00;;
17631;SDS011;8934;51.194;17.150;2022-10-31T07:58:31;37.88;;;26.88;;
17631;SDS011;8934;51.194;17.150;2022-10-31T08:07:35;31.75;;;25.98;;
17631;SDS011;8934;51.194;17.150;2022-10-31T09:14:26;14.90;;;10.75;;
17631;SDS011;8934;51.194;17.150;2022-10-31T09:17:37;14.20;;;9.77;;
17631;SDS011;8934;51.194;17.150;2022-10-31T09:20:49;12.77;;;9.85;;
17631;SDS011;8934;51.194;17.150;2022-10-31T09:23:37;11.88;;;9.95;;
17631;SDS011;8934;51.194;17.150;2022-10-31T09:26:25;11.13;;;9.52;;
17631;SDS011;8934;51.194;17.150;2022-10-31T09:29:15;11.68;;;9.60;;
17631;SDS011;8934;51.194;17.150;2022-10-31T09:32:06;10.63;;;8.75;;
17631;SDS011;8934;51.194;17.150;2022-10-31T09:34:58;10.18;;;9.05;;
17631;SDS011;8934;51.194;17.150;2022-10-31T09:37:47;11.48;;;8.50;;
17631;SDS011;8934;51.194;17.150;2022-10-31T09:40:41;10.13;;;7.75;;
17631;SDS011;8934;51.194;17.150;2022-10-31T09:43:32;11.20;;;7.82;;
17631;SDS011;8934;51.194;17.150;2022-10-31T09:46:28;11.18;;;8.60;;
17631;SDS011;8934;51.194;17.150;2022-10-31T09:49:31;13.25;;;8.15;;
17631;SDS011;8934;51.194;17.150;2022-10-31T09:52:40;10.38;;;7.53;;
17631;SDS011;8934;51.194;17.150;2022-10-31T09:55:36;9.77;;;7.82;;
17631;SDS011;8934;51.194;17.150;2022-10-31T09:58:27;11.88;;;8.80;;
17631;SDS011;8934;51.194;17.150;2022-10-31T10:01:28;10.90;;;7.53;;
17631;SDS011;8934;51.194;17.150;2022-10-31T10:04:28;13.02;;;8.02;;
17631;SDS011;8934;51.194;17.150;2022-10-31T10:07:30;12.70;;;8.50;;
17631;SDS011;8934;51.194;17.150;2022-10-31T10:10:48;11.20;;;8.57;;
17631;SDS011;8934;51.194;17.150;2022-10-31T10:13:42;10.68;;;7.70;;
17631;SDS011;8934;51.194;17.150;2022-10-31T10:16:51;10.15;;;7.40;;
17631;SDS011;8934;51.194;17.150;2022-10-31T10:20:01;8.85;;;7.22;;
17631;SDS011;8934;51.194;17.150;2022-10-31T10:23:12;12.88;;;8.85;;
17631;SDS011;8934;51.194;17.150;2022-10-31T10:26:15;11.93;;;8.32;;
17631;SDS011;8934;51.194;17.150;2022-10-31T10:29:09;10.27;;;7.75;;
17631;SDS011;8934;51.194;17.150;2022-10-31T10:32:10;11.00;;;7.90;;
17631;SDS011;8934;51.194;17.150;2022-10-31T10:35:02;9.68;;;7.22;;
17631;SDS011;8934;51.194;17.150;2022-10-31T10:38:03;10.65;;;8.45;;
17631;SDS011;8934;51.194;17.150;2022-10-31T10:40:56;13.90;;;8.32;;
17631;SDS011;8934;51.194;17.150;2022-10-31T10:43:50;8.95;;;7.47;;
17631;SDS011;8934;51.194;17.150;2022-10-31T10:46:40;13.23;;;8.38;;
17631;SDS011;8934;51.194;17.150;2022-10-31T10:49:48;12.40;;;8.07;;
17631;SDS011;8934;51.194;17.150;2022-10-31T10:52:39;12.02;;;6.85;;
17631;SDS011;8934;51.194;17.150;2022-10-31T10:55:36;9.45;;;7.43;;
17631;SDS011;8934;51.194;17.150;2022-10-31T10:58:30;10.18;;;7.55;;
17631;SDS011;8934;51.194;17.150;2022-10-31T11:01:19;10.30;;;6.93;;
17631;SDS011;8934;51.194;17.150;2022-10-31T11:04:11;11.82;;;7.78;;
17631;SDS011;8934;51.194;17.150;2022-10-31T11:07:11;9.65;;;8.65;;
17631;SDS011;8934;51.194;17.150;2022-10-31T11:10:02;8.05;;;7.25;;
17631;SDS011;8934;51.194;17.150;2022-10-31T11:13:06;9.68;;;7.15;;
17631;SDS011;8934;51.194;17.150;2022-10-31T11:16:08;9.48;;;7.05;;
17631;SDS011;8934;51.194;17.150;2022-10-31T11:19:12;12.85;;;7.40;;
17631;SDS011;8934;51.194;17.150;2022-10-31T11:22:07;12.77;;;6.45;;
17631;SDS011;8934;51.194;17.150;2022-10-31T11:25:00;7.65;;;6.85;;
17631;SDS011;8934;51.194;17.150;2022-10-31T11:28:08;9.52;;;7.00;;
17631;SDS011;8934;51.194;17.150;2022-10-31T11:30:57;10.63;;;5.88;;
17631;SDS011;8934;51.194;17.150;2022-10-31T11:33:47;11.70;;;6.82;;
17631;SDS011;8934;51.194;17.150;2022-10-31T11:36:38;11.48;;;7.28;;
17631;SDS011;8934;51.194;17.150;2022-10-31T11:39:29;7.53;;;6.60;;
17631;SDS011;8934;51.194;17.150;2022-10-31T11:42:17;12.13;;;6.35;;
17631;SDS011;8934;51.194;17.150;2022-10-31T11:45:07;10.73;;;6.15;;
17631;SDS011;8934;51.194;17.150;2022-10-31T11:48:12;11.60;;;6.97;;
17631;SDS011;8934;51.194;17.150;2022-10-31T11:51:02;7.35;;;6.25;;
17631;SDS011;8934;51.194;17.150;2022-10-31T11:53:54;16.65;;;7.25;;
17631;SDS011;8934;51.194;17.150;2022-10-31T11:56:48;10.05;;;6.40;;
17631;SDS011;8934;51.194;17.150;2022-10-31T11:59:36;9.93;;;6.97;;
17631;SDS011;8934;51.194;17.150;2022-10-31T12:02:26;7.63;;;6.75;;
17631;SDS011;8934;51.194;17.150;2022-10-31T12:05:17;9.45;;;6.13;;
17631;SDS011;8934;51.194;17.150;2022-10-31T12:08:07;11.50;;;7.10;;
17631;SDS011;8934;51.194;17.150;2022-10-31T12:10:58;9.00;;;7.18;;
17631;SDS011;8934;51.194;17.150;2022-10-31T12:14:00;6.78;;;6.13;;
17631;SDS011;8934;51.194;17.150;2022-10-31T12:16:55;8.85;;;6.50;;
17631;SDS011;8934;51.194;17.150;2022-10-31T12:19:50;10.90;;;6.50;;
17631;SDS011;8934;51.194;17.150;2022-10-31T12:22:50;11.48;;;7.00;;
17631;SDS011;8934;51.194;17.150;2022-10-31T12:25:45;8.60;;;7.05;;
17631;SDS011;8934;51.194;17.150;2022-10-31T12:28:44;11.73;;;6.90;;
17631;SDS011;8934;51.194;17.150;2022-10-31T12:31:44;10.48;;;6.63;;
17631;SDS011;8934;51.194;17.150;2022-10-31T12:34:52;10.40;;;6.40;;
17631;SDS011;8934;51.194;17.150;2022-10-31T12:38:07;10.45;;;6.68;;
17631;SDS011;8934;51.194;17.150;2022-10-31T12:41:21;15.00;;;7.75;;
17631;SDS011;8934;51.194;17.150;2022-10-31T12:44:32;10.80;;;6.90;;
17631;SDS011;8934;51.194;17.150;2022-10-31T12:47:35;9.30;;;6.20;;
17631;SDS011;8934;51.194;17.150;2022-10-31T12:50:34;16.90;;;6.68;;
17631;SDS011;8934;51.194;17.150;2022-10-31T12:53:38;10.55;;;6.30;;
17631;SDS011;8934;51.194;17.150;2022-10-31T12:56:39;13.40;;;7.22;;
17631;SDS011;8934;51.194;17.150;2022-10-31T12:59:35;9.25;;;6.70;;
17631;SDS011;8934;51.194;17.150;2022-10-31T13:02:27;8.90;;;6.47;;
17631;SDS011;8934;51.194;17.150;2022-10-31T13:05:21;12.77;;;7.00;;
17631;SDS011;8934;51.194;17.150;2022-10-31T13:08:15;7.95;;;5.88;;
17631;SDS011;8934;51.194;17.150;2022-10-31T13:11:06;9.75;;;6.78;;
17631;SDS011;8934;51.194;17.150;2022-10-31T13:13:58;10.70;;;6.80;;
17631;SDS011;8934;51.194;17.150;2022-10-31T13:16:53;9.27;;;6.05;;
17631;SDS011;8934;51.194;17.150;2022-10-31T13:19:43;14.02;;;7.15;;
17631;SDS011;8934;51.194;17.150;2022-10-31T13:22:32;9.32;;;6.10;;
17631;SDS011;8934;51.194;17.150;2022-10-31T13:25:23;10.52;;;6.03;;
17631;SDS011;8934;51.194;17.150;2022-10-31T13:28:19;11.00;;;6.40;;
17631;SDS011;8934;51.194;17.150;2022-10-31T13:31:13;9.80;;;6.47;;
17631;SDS011;8934;51.194;17.150;2022-10-31T13:34:03;12.68;;;6.13;;
17631;SDS011;8934;51.194;17.150;2022-10-31T13:37:00;11.80;;;6.45;;
17631;SDS011;8934;51.194;17.150;2022-10-31T13:39:56;8.50;;;5.95;;
17631;SDS011;8934;51.194;17.150;2022-10-31T13:42:55;12.60;;;6.78;;
17631;SDS011;8934;51.194;17.150;2022-10-31T13:45:50;12.82;;;6.82;;
17631;SDS011;8934;51.194;17.150;2022-10-31T13:48:40;11.80;;;6.05;;
17631;SDS011;8934;51.194;17.150;2022-10-31T13:51:30;13.63;;;6.22;;
17631;SDS011;8934;51.194;17.150;2022-10-31T13:54:23;10.27;;;6.57;;
17631;SDS011;8934;51.194;17.150;2022-10-31T13:57:19;11.00;;;6.50;;
17631;SDS011;8934;51.194;17.150;2022-10-31T14:00:22;9.93;;;5.80;;
17631;SDS011;8934;51.194;17.150;2022-10-31T14:03:16;10.13;;;6.00;;
17631;SDS011;8934;51.194;17.150;2022-10-31T14:06:38;9.15;;;5.85;;
17631;SDS011;8934;51.194;17.150;2022-10-31T14:09:30;8.40;;;5.82;;
17631;SDS011;8934;51.194;17.150;2022-10-31T14:12:22;10.77;;;6.25;;
17631;SDS011;8934;51.194;17.150;2022-10-31T14:15:14;9.52;;;5.68;;
17631;SDS011;8934;51.194;17.150;2022-10-31T14:18:04;7.68;;;5.50;;
17631;SDS011;8934;51.194;17.150;2022-10-31T14:20:53;7.22;;;5.43;;
17631;SDS011;8934;51.194;17.150;2022-10-31T14:23:42;9.23;;;5.70;;
17631;SDS011;8934;51.194;17.150;2022-10-31T14:26:35;8.27;;;6.00;;
17631;SDS011;8934;51.194;17.150;2022-10-31T14:29:24;6.82;;;5.72;;
17631;SDS011;8934;51.194;17.150;2022-10-31T14:32:18;6.50;;;5.15;;
17631;SDS011;8934;51.194;17.150;2022-10-31T14:35:09;9.52;;;5.55;;
17631;SDS011;8934;51.194;17.150;2022-10-31T14:38:09;7.07;;;5.40;;
17631;SDS011;8934;51.194;17.150;2022-10-31T14:41:14;9.27;;;6.00;;
17631;SDS011;8934;51.194;17.150;2022-10-31T14:44:36;8.88;;;5.50;;
17631;SDS011;8934;51.194;17.150;2022-10-31T14:47:40;6.03;;;5.40;;
17631;SDS011;8934;51.194;17.150;2022-10-31T14:50:40;5.80;;;4.78;;
17631;SDS011;8934;51.194;17.150;2022-10-31T14:53:31;6.05;;;5.20;;
17631;SDS011;8934;51.194;17.150;2022-10-31T14:56:24;6.40;;;4.70;;
17631;SDS011;8934;51.194;17.150;2022-10-31T14:59:15;6.90;;;4.95;;
17631;SDS011;8934;51.194;17.150;2022-10-31T15:02:08;8.18;;;5.30;;
17631;SDS011;8934;51.194;17.150;2022-10-31T15:05:00;5.68;;;4.97;;
17631;SDS011;8934;51.194;17.150;2022-10-31T15:07:54;6.10;;;5.50;;
17631;SDS011;8934;51.194;17.150;2022-10-31T15:10:44;7.47;;;5.32;;
17631;SDS011;8934;51.194;17.150;2022-10-31T15:13:34;9.00;;;5.55;;
17631;SDS011;8934;51.194;17.150;2022-10-31T15:16:30;8.55;;;5.13;;
17631;SDS011;8934;51.194;17.150;2022-10-31T15:19:20;5.43;;;4.93;;
17631;SDS011;8934;51.194;17.150;2022-10-31T15:22:12;5.75;;;5.05;;
17631;SDS011;8934;51.194;17.150;2022-10-31T15:25:02;7.70;;;5.68;;
17631;SDS011;8934;51.194;17.150;2022-10-31T15:27:52;6.88;;;5.72;;
17631;SDS011;8934;51.194;17.150;2022-10-31T15:30:48;6.97;;;5.00;;
17631;SDS011;8934;51.194;17.150;2022-10-31T15:33:39;5.95;;;5.07;;
17631;SDS011;8934;51.194;17.150;2022-10-31T15:39:23;7.40;;;5.65;;
17631;SDS011;8934;51.194;17.150;2022-10-31T15:42:16;6.18;;;5.60;;
17631;SDS011;8934;51.194;17.150;2022-10-31T15:45:15;6.65;;;5.95;;
17631;SDS011;8934;51.194;17.150;2022-10-31T15:51:02;9.00;;;5.28;;
17631;SDS011;8934;51.194;17.150;2022-10-31T15:56:39;6.65;;;5.93;;
17631;SDS011;8934;51.194;17.150;2022-10-31T15:59:40;7.55;;;5.40;;
17631;SDS011;8934;51.194;17.150;2022-10-31T16:02:32;6.63;;;6.03;;
17631;SDS011;8934;51.194;17.150;2022-10-31T16:05:33;9.38;;;5.90;;
17631;SDS011;8934;51.194;17.150;2022-10-31T16:08:23;6.47;;;5.57;;
17631;SDS011;8934;51.194;17.150;2022-10-31T16:11:17;8.45;;;6.18;;
17631;SDS011;8934;51.194;17.150;2022-10-31T16:14:14;12.30;;;6.60;;
17631;SDS011;8934;51.194;17.150;2022-10-31T17:07:55;9.23;;;7.35;;
17631;SDS011;8934;51.194;17.150;2022-10-31T17:10:44;9.65;;;7.75;;
17631;SDS011;8934;51.194;17.150;2022-10-31T17:13:36;8.52;;;7.68;;
17631;SDS011;8934;51.194;17.150;2022-10-31T17:16:25;12.32;;;7.72;;
17631;SDS011;8934;51.194;17.150;2022-10-31T17:19:12;8.32;;;7.28;;
17631;SDS011;8934;51.194;17.150;2022-10-31T17:22:00;8.15;;;7.38;;
17631;SDS011;8934;51.194;17.150;2022-10-31T17:24:48;11.38;;;8.27;;
17631;SDS011;8934;51.194;17.150;2022-10-31T17:27:36;14.55;;;8.57;;
17631;SDS011;8934;51.194;17.150;2022-10-31T17:30:31;10.82;;;9.68;;
17631;SDS011;8934;51.194;17.150;2022-10-31T17:33:21;12.40;;;11.10;;
17631;SDS011;8934;51.194;17.150;2022-10-31T17:36:09;12.40;;;10.50;;
17631;SDS011;8934;51.194;17.150;2022-10-31T17:38:57;10.68;;;9.77;;
17631;SDS011;8934;51.194;17.150;2022-10-31T17:41:44;11.48;;;10.50;;
17631;SDS011;8934;51.194;17.150;2022-10-31T17:44:32;11.45;;;10.15;;
17631;SDS011;8934;51.194;17.150;2022-10-31T17:47:22;11.23;;;9.68;;
17631;SDS011;8934;51.194;17.150;2022-10-31T17:50:09;10.98;;;9.90;;
17631;SDS011;8934;51.194;17.150;2022-10-31T17:52:58;10.48;;;9.40;;
17631;SDS011;8934;51.194;17.150;2022-10-31T17:55:46;9.82;;;8.75;;
17631;SDS011;8934;51.194;17.150;2022-10-31T17:58:34;8.63;;;7.70;;
17631;SDS011;8934;51.194;17.150;2022-10-31T18:01:23;11.38;;;8.40;;
17631;SDS011;8934;51.194;17.150;2022-10-31T18:04:12;11.52;;;9.45;;
17631;SDS011;8934;51.194;17.150;2022-10-31T18:07:00;8.80;;;7.90;;
17631;SDS011;8934;51.194;17.150;2022-10-31T18:09:49;9.05;;;8.15;;
17631;SDS011;8934;51.194;17.150;2022-10-31T18:15:24;9.38;;;8.48;;
17631;SDS011;8934;51.194;17.150;2022-10-31T19:08:40;9.18;;;8.07;;
17631;SDS011;8934;51.194;17.150;2022-10-31T19:11:31;8.77;;;8.00;;
17631;SDS011;8934;51.194;17.150;2022-10-31T19:14:19;8.25;;;7.45;;
17631;SDS011;8934;51.194;17.150;2022-10-31T19:17:07;8.80;;;7.57;;
17631;SDS011;8934;51.194;17.150;2022-10-31T19:19:55;8.70;;;7.88;;
17631;SDS011;8934;51.194;17.150;2022-10-31T19:22:43;8.55;;;7.63;;
17631;SDS011;8934;51.194;17.150;2022-10-31T19:25:30;9.18;;;7.90;;
17631;SDS011;8934;51.194;17.150;2022-10-31T19:28:19;12.43;;;9.07;;
17631;SDS011;8934;51.194;17.150;2022-10-31T19:31:07;10.50;;;8.73;;
17631;SDS011;8934;51.194;17.150;2022-10-31T19:33:56;11.32;;;10.18;;
17631;SDS011;8934;51.194;17.150;2022-10-31T19:36:43;11.57;;;9.10;;
17631;SDS011;8934;51.194;17.150;2022-10-31T19:39:31;9.60;;;7.85;;
17631;SDS011;8934;51.194;17.150;2022-10-31T19:42:19;11.15;;;10.05;;
17631;SDS011;8934;51.194;17.150;2022-10-31T19:45:08;13.98;;;11.63;;
17631;SDS011;8934;51.194;17.150;2022-10-31T19:47:56;13.85;;;12.05;;
17631;SDS011;8934;51.194;17.150;2022-10-31T19:50:44;18.92;;;12.90;;
17631;SDS011;8934;51.194;17.150;2022-10-31T19:53:32;41.42;;;26.73;;
17631;SDS011;8934;51.194;17.150;2022-10-31T19:56:21;31.17;;;21.73;;
17631;SDS011;8934;51.194;17.150;2022-10-31T19:59:10;24.38;;;17.02;;
17631;SDS011;8934;51.194;17.150;2022-10-31T20:01:59;20.65;;;15.77;;
17631;SDS011;8934;51.194;17.150;2022-10-31T20:04:46;20.63;;;15.80;;
17631;SDS011;8934;51.194;17.150;2022-10-31T20:07:34;22.58;;;16.48;;
17631;SDS011;8934;51.194;17.150;2022-10-31T20:10:22;21.85;;;15.40;;
17631;SDS011;8934;51.194;17.150;2022-10-31T20:13:09;20.45;;;15.88;;
17631;SDS011;8934;51.194;17.150;2022-10-31T20:16:01;19.02;;;16.00;;
17631;SDS011;8934;51.194;17.150;2022-10-31T20:18:51;22.60;;;17.40;;
17631;SDS011;8934;51.194;17.150;2022-10-31T20:21:40;24.77;;;16.98;;
17631;SDS011;8934;51.194;17.150;2022-10-31T20:24:29;26.80;;;18.92;;
17631;SDS011;8934;51.194;17.150;2022-10-31T20:27:18;23.50;;;19.13;;
17631;SDS011;8934;51.194;17.150;2022-10-31T20:30:06;26.20;;;18.93;;
17631;SDS011;8934;51.194;17.150;2022-10-31T20:32:55;23.08;;;17.20;;
17631;SDS011;8934;51.194;17.150;2022-10-31T20:35:44;21.83;;;17.08;;
17631;SDS011;8934;51.194;17.150;2022-10-31T20:38:31;25.10;;;18.00;;
17631;SDS011;8934;51.194;17.150;2022-10-31T20:41:19;21.85;;;17.88;;
17631;SDS011;8934;51.194;17.150;2022-10-31T20:44:07;23.43;;;18.03;;
17631;SDS011;8934;51.194;17.150;2022-10-31T20:46:55;26.17;;;17.53;;
17631;SDS011;8934;51.194;17.150;2022-10-31T20:49:43;22.30;;;16.98;;
17631;SDS011;8934;51.194;17.150;2022-10-31T20:52:32;28.42;;;18.92;;
17631;SDS011;8934;51.194;17.150;2022-10-31T20:55:20;25.48;;;19.70;;
17631;SDS011;8934;51.194;17.150;2022-10-31T20:58:08;27.27;;;20.85;;
17631;SDS011;8934;51.194;17.150;2022-10-31T21:00:56;35.85;;;23.52;;
17631;SDS011;8934;51.194;17.150;2022-10-31T21:03:45;29.65;;;21.67;;
17631;SDS011;8934;51.194;17.150;2022-10-31T21:06:33;27.65;;;22.23;;
17631;SDS011;8934;51.194;17.150;2022-10-31T21:09:23;34.53;;;23.17;;
17631;SDS011;8934;51.194;17.150;2022-10-31T21:12:10;31.95;;;23.67;;
17631;SDS011;8934;51.194;17.150;2022-10-31T21:14:58;28.08;;;20.48;;
17631;SDS011;8934;51.194;17.150;2022-10-31T21:17:48;32.15;;;22.85;;
17631;SDS011;8934;51.194;17.150;2022-10-31T21:20:37;39.28;;;27.25;;
17631;SDS011;8934;51.194;17.150;2022-10-31T21:23:26;45.60;;;30.80;;
17631;SDS011;8934;51.194;17.150;2022-10-31T21:26:16;60.35;;;34.65;;
17631;SDS011;8934;51.194;17.150;2022-10-31T21:29:06;43.15;;;29.92;;
17631;SDS011;8934;51.194;17.150;2022-10-31T21:31:56;42.33;;;29.60;;
17631;SDS011;8934;51.194;17.150;2022-10-31T21:34:43;44.95;;;32.75;;
17631;SDS011;8934;51.194;17.150;2022-10-31T21:37:31;43.73;;;31.90;;
17631;SDS011;8934;51.194;17.150;2022-10-31T21:40:18;46.35;;;31.45;;
17631;SDS011;8934;51.194;17.150;2022-10-31T21:43:08;37.67;;;28.57;;
17631;SDS011;8934;51.194;17.150;2022-10-31T21:46:00;45.72;;;30.95;;
17631;SDS011;8934;51.194;17.150;2022-10-31T21:48:49;48.80;;;33.30;;
17631;SDS011;8934;51.194;17.150;2022-10-31T21:51:37;47.17;;;33.90;;
17631;SDS011;8934;51.194;17.150;2022-10-31T21:54:25;44.03;;;31.50;;
17631;SDS011;8934;51.194;17.150;2022-10-31T21:57:13;45.90;;;29.70;;
17631;SDS011;8934;51.194;17.150;2022-10-31T22:00:02;39.58;;;28.40;;
17631;SDS011;8934;51.194;17.150;2022-10-31T22:02:53;36.92;;;26.70;;
17631;SDS011;8934;51.194;17.150;2022-10-31T22:05:40;38.13;;;26.77;;
17631;SDS011;8934;51.194;17.150;2022-10-31T22:08:28;37.53;;;25.85;;
17631;SDS011;8934;51.194;17.150;2022-10-31T22:11:16;35.10;;;26.48;;
17631;SDS011;8934;51.194;17.150;2022-10-31T22:14:05;30.58;;;24.23;;
17631;SDS011;8934;51.194;17.150;2022-10-31T22:16:55;32.77;;;24.87;;
17631;SDS011;8934;51.194;17.150;2022-10-31T22:19:42;36.13;;;25.63;;
17631;SDS011;8934;51.194;17.150;2022-10-31T22:22:30;33.78;;;25.00;;
17631;SDS011;8934;51.194;17.150;2022-10-31T22:25:18;33.63;;;25.80;;
17631;SDS011;8934;51.194;17.150;2022-10-31T22:28:05;33.67;;;25.45;;
17631;SDS011;8934;51.194;17.150;2022-10-31T22:30:53;39.47;;;27.27;;
17631;SDS011;8934;51.194;17.150;2022-10-31T22:33:42;36.03;;;26.80;;
17631;SDS011;8934;51.194;17.150;2022-10-31T22:36:30;36.33;;;25.83;;
17631;SDS011;8934;51.194;17.150;2022-10-31T22:39:18;35.67;;;26.30;;
17631;SDS011;8934;51.194;17.150;2022-10-31T22:42:07;37.83;;;26.30;;
17631;SDS011;8934;51.194;17.150;2022-10-31T22:44:55;36.30;;;25.52;;
17631;SDS011;8934;51.194;17.150;2022-10-31T22:47:42;33.60;;;24.33;;
17631;SDS011;8934;51.194;17.150;2022-10-31T22:50:32;35.53;;;24.37;;
17631;SDS011;8934;51.194;17.150;2022-10-31T22:53:20;34.90;;;25.67;;
17631;SDS011;8934;51.194;17.150;2022-10-31T22:56:10;32.20;;;24.93;;
17631;SDS011;8934;51.194;17.150;2022-10-31T22:58:59;40.60;;;30.30;;
17631;SDS011;8934;51.194;17.150;2022-10-31T23:01:47;37.17;;;26.70;;
17631;SDS011;8934;51.194;17.150;2022-10-31T23:04:35;33.93;;;25.83;;
17631;SDS011;8934;51.194;17.150;2022-10-31T23:07:24;37.10;;;26.10;;
17631;SDS011;8934;51.194;17.150;2022-10-31T23:10:17;31.60;;;25.23;;
17631;SDS011;8934;51.194;17.150;2022-10-31T23:13:06;33.27;;;24.73;;
17631;SDS011;8934;51.194;17.150;2022-10-31T23:16:12;35.40;;;26.53;;
17631;SDS011;8934;51.194;17.150;2022-10-31T23:18:59;36.97;;;27.57;;
17631;SDS011;8934;51.194;17.150;2022-10-31T23:21:52;36.73;;;26.70;;
17631;SDS011;8934;51.194;17.150;2022-10-31T23:24:46;37.83;;;26.77;;
17631;SDS011;8934;51.194;17.150;2022-10-31T23:27:33;33.93;;;25.30;;
17631;SDS011;8934;51.194;17.150;2022-10-31T23:30:20;35.50;;;27.30;;
17631;SDS011;8934;51.194;17.150;2022-10-31T23:33:08;37.93;;;27.00;;
17631;SDS011;8934;51.194;17.150;2022-10-31T23:35:56;36.38;;;27.15;;
17631;SDS011;8934;51.194;17.150;2022-10-31T23:38:44;37.73;;;29.53;;
17631;SDS011;8934;51.194;17.150;2022-10-31T23:41:37;42.72;;;28.77;;
17631;SDS011;8934;51.194;17.150;2022-10-31T23:44:24;36.33;;;28.43;;
17631;SDS011;8934;51.194;17.150;2022-10-31T23:47:12;34.50;;;27.47;;
17631;SDS011;8934;51.194;17.150;2022-10-31T23:50:01;30.43;;;24.77;;
17631;SDS011;8934;51.194;17.150;2022-10-31T23:52:48;34.60;;;26.37;;
17631;SDS011;8934;51.194;17.150;2022-10-31T23:55:36;39.57;;;28.47;;
17631;SDS011;8934;51.194;17.150;2022-10-31T23:58:25;38.27;;;26.77;;
